Terminal Aerodrome Forecast
Issued by NWS

Home | Current Version | Previous Version | Text Only | Print | Product List | Glossary On
Versions: 1 2 3 4 5 6 7 8 9 10 11 12
000
FTUS45 KMSO 171720
TAFSMN
TAF
KSMN 171720Z 1718/1818 00000KT P6SM SCT150
     FM172100 22007KT P6SM VCSH SCT070 BKN120
     FM180100 VRB03KT P6SM SCT120
     FM181200 25003KT P6SM -SHRA BKN070 OVC100
      AMD LTD TO CLD VIS AND WIND=

USA.gov is the U.S. government's official web portal to all federal, state and local government web resources and services.